sensor_id;sensor_type;location;lat;lon;timestamp;temperature;humidity
3156;DHT22;1588;50.892;7.082;2023-12-20T00:02:00;7.40;99.90
3156;DHT22;1588;50.892;7.082;2023-12-20T00:07:03;7.40;99.90
3156;DHT22;1588;50.892;7.082;2023-12-20T00:12:10;7.40;99.90
3156;DHT22;1588;50.892;7.082;2023-12-20T00:17:12;7.40;99.90
3156;DHT22;1588;50.892;7.082;2023-12-20T00:22:14;7.40;99.90
3156;DHT22;1588;50.892;7.082;2023-12-20T00:27:21;7.40;99.90
3156;DHT22;1588;50.892;7.082;2023-12-20T00:32:29;7.40;99.90
3156;DHT22;1588;50.892;7.082;2023-12-20T00:37:34;7.40;99.90
3156;DHT22;1588;50.892;7.082;2023-12-20T00:42:54;7.40;99.90
3156;DHT22;1588;50.892;7.082;2023-12-20T00:47:56;7.40;99.90
3156;DHT22;1588;50.892;7.082;2023-12-20T00:53:01;7.40;99.90
3156;DHT22;1588;50.892;7.082;2023-12-20T00:58:27;7.50;99.90
3156;DHT22;1588;50.892;7.082;2023-12-20T01:03:30;7.50;99.90
3156;DHT22;1588;50.892;7.082;2023-12-20T01:08:48;7.50;99.90
3156;DHT22;1588;50.892;7.082;2023-12-20T01:13:55;7.30;99.90
3156;DHT22;1588;50.892;7.082;2023-12-20T01:18:57;7.20;99.90
3156;DHT22;1588;50.892;7.082;2023-12-20T01:24:02;7.20;99.90
3156;DHT22;1588;50.892;7.082;2023-12-20T01:29:10;7.10;99.90
3156;DHT22;1588;50.892;7.082;2023-12-20T01:34:26;7.00;99.90
3156;DHT22;1588;50.892;7.082;2023-12-20T01:39:31;6.90;99.90
3156;DHT22;1588;50.892;7.082;2023-12-20T01:44:34;6.80;99.90
3156;DHT22;1588;50.892;7.082;2023-12-20T01:49:40;6.90;99.90
3156;DHT22;1588;50.892;7.082;2023-12-20T01:54:48;7.00;99.90
3156;DHT22;1588;50.892;7.082;2023-12-20T01:59:54;7.10;99.90
3156;DHT22;1588;50.892;7.082;2023-12-20T02:04:57;7.00;99.90
3156;DHT22;1588;50.892;7.082;2023-12-20T02:09:59;7.00;99.90
3156;DHT22;1588;50.892;7.082;2023-12-20T02:15:03;7.00;99.90
3156;DHT22;1588;50.892;7.082;2023-12-20T02:20:07;6.80;99.90
3156;DHT22;1588;50.892;7.082;2023-12-20T02:25:11;6.70;99.90
3156;DHT22;1588;50.892;7.082;2023-12-20T02:30:14;6.60;99.90
3156;DHT22;1588;50.892;7.082;2023-12-20T02:35:16;6.50;99.90
3156;DHT22;1588;50.892;7.082;2023-12-20T02:40:20;6.30;99.90
3156;DHT22;1588;50.892;7.082;2023-12-20T02:45:23;6.20;99.90
3156;DHT22;1588;50.892;7.082;2023-12-20T02:50:25;6.00;99.90
3156;DHT22;1588;50.892;7.082;2023-12-20T02:55:28;6.00;99.90
3156;DHT22;1588;50.892;7.082;2023-12-20T03:00:31;6.00;99.90
3156;DHT22;1588;50.892;7.082;2023-12-20T03:05:52;5.90;99.90
3156;DHT22;1588;50.892;7.082;2023-12-20T03:10:55;5.90;99.90
3156;DHT22;1588;50.892;7.082;2023-12-20T03:15:58;5.90;99.90
3156;DHT22;1588;50.892;7.082;2023-12-20T03:21:00;5.90;99.90
3156;DHT22;1588;50.892;7.082;2023-12-20T03:26:06;6.00;99.90
3156;DHT22;1588;50.892;7.082;2023-12-20T03:31:10;6.00;99.90
3156;DHT22;1588;50.892;7.082;2023-12-20T03:36:12;6.00;99.90
3156;DHT22;1588;50.892;7.082;2023-12-20T03:41:15;6.00;99.90
3156;DHT22;1588;50.892;7.082;2023-12-20T03:46:20;6.10;99.90
3156;DHT22;1588;50.892;7.082;2023-12-20T03:51:22;6.10;99.90
3156;DHT22;1588;50.892;7.082;2023-12-20T03:56:26;6.10;99.90
3156;DHT22;1588;50.892;7.082;2023-12-20T04:01:29;6.10;99.90
3156;DHT22;1588;50.892;7.082;2023-12-20T04:06:31;6.10;99.90
3156;DHT22;1588;50.892;7.082;2023-12-20T04:11:34;6.10;99.90
3156;DHT22;1588;50.892;7.082;2023-12-20T04:16:38;6.10;99.90
3156;DHT22;1588;50.892;7.082;2023-12-20T04:21:41;6.10;99.90
3156;DHT22;1588;50.892;7.082;2023-12-20T04:26:44;6.10;99.90
3156;DHT22;1588;50.892;7.082;2023-12-20T04:31:49;6.10;99.90
3156;DHT22;1588;50.892;7.082;2023-12-20T04:36:52;6.10;99.90
3156;DHT22;1588;50.892;7.082;2023-12-20T04:41:56;6.10;99.90
3156;DHT22;1588;50.892;7.082;2023-12-20T04:46:58;6.10;99.90
3156;DHT22;1588;50.892;7.082;2023-12-20T04:52:01;6.20;99.90
3156;DHT22;1588;50.892;7.082;2023-12-20T04:57:07;6.20;99.90
3156;DHT22;1588;50.892;7.082;2023-12-20T05:02:10;6.10;99.90
3156;DHT22;1588;50.892;7.082;2023-12-20T05:07:12;6.10;99.90
3156;DHT22;1588;50.892;7.082;2023-12-20T05:12:16;6.00;99.90
3156;DHT22;1588;50.892;7.082;2023-12-20T05:17:20;6.00;99.90
3156;DHT22;1588;50.892;7.082;2023-12-20T05:22:23;6.10;99.90
3156;DHT22;1588;50.892;7.082;2023-12-20T05:27:26;6.00;99.90
3156;DHT22;1588;50.892;7.082;2023-12-20T05:32:29;5.90;99.90
3156;DHT22;1588;50.892;7.082;2023-12-20T05:37:32;5.90;99.90
3156;DHT22;1588;50.892;7.082;2023-12-20T05:42:35;6.00;99.90
3156;DHT22;1588;50.892;7.082;2023-12-20T05:47:38;6.00;99.90
3156;DHT22;1588;50.892;7.082;2023-12-20T05:52:41;6.00;99.90
3156;DHT22;1588;50.892;7.082;2023-12-20T05:57:44;6.00;99.90
3156;DHT22;1588;50.892;7.082;2023-12-20T06:02:47;6.00;99.90
3156;DHT22;1588;50.892;7.082;2023-12-20T06:07:49;6.00;99.90
3156;DHT22;1588;50.892;7.082;2023-12-20T06:12:53;6.00;99.90
3156;DHT22;1588;50.892;7.082;2023-12-20T06:17:56;6.00;99.90
3156;DHT22;1588;50.892;7.082;2023-12-20T06:22:58;6.00;99.90
3156;DHT22;1588;50.892;7.082;2023-12-20T06:28:02;6.00;99.90
3156;DHT22;1588;50.892;7.082;2023-12-20T06:33:05;6.10;99.90
3156;DHT22;1588;50.892;7.082;2023-12-20T06:38:07;6.10;99.90
3156;DHT22;1588;50.892;7.082;2023-12-20T06:43:12;6.10;99.90
3156;DHT22;1588;50.892;7.082;2023-12-20T06:48:14;6.10;99.90
3156;DHT22;1588;50.892;7.082;2023-12-20T06:53:16;6.20;99.90
3156;DHT22;1588;50.892;7.082;2023-12-20T06:58:20;6.20;99.90
3156;DHT22;1588;50.892;7.082;2023-12-20T07:03:22;6.20;99.90
3156;DHT22;1588;50.892;7.082;2023-12-20T07:08:24;6.20;99.90
3156;DHT22;1588;50.892;7.082;2023-12-20T07:13:28;6.20;99.90
3156;DHT22;1588;50.892;7.082;2023-12-20T07:18:30;6.20;99.90
3156;DHT22;1588;50.892;7.082;2023-12-20T07:23:32;6.30;99.90
3156;DHT22;1588;50.892;7.082;2023-12-20T07:28:36;6.30;99.90
3156;DHT22;1588;50.892;7.082;2023-12-20T07:33:38;6.30;99.90
3156;DHT22;1588;50.892;7.082;2023-12-20T07:38:41;6.40;99.90
3156;DHT22;1588;50.892;7.082;2023-12-20T07:43:46;6.40;99.90
3156;DHT22;1588;50.892;7.082;2023-12-20T07:48:48;6.40;99.90
3156;DHT22;1588;50.892;7.082;2023-12-20T07:53:51;6.50;99.90
3156;DHT22;1588;50.892;7.082;2023-12-20T07:58:55;6.50;99.90
3156;DHT22;1588;50.892;7.082;2023-12-20T08:03:57;6.50;99.90
3156;DHT22;1588;50.892;7.082;2023-12-20T08:08:59;6.50;99.90
3156;DHT22;1588;50.892;7.082;2023-12-20T08:14:03;6.60;99.90
3156;DHT22;1588;50.892;7.082;2023-12-20T08:19:08;6.60;99.90
3156;DHT22;1588;50.892;7.082;2023-12-20T08:24:10;6.60;99.90
3156;DHT22;1588;50.892;7.082;2023-12-20T08:29:14;6.60;99.90
3156;DHT22;1588;50.892;7.082;2023-12-20T08:34:16;6.60;99.90
3156;DHT22;1588;50.892;7.082;2023-12-20T08:39:18;6.60;99.90
3156;DHT22;1588;50.892;7.082;2023-12-20T08:44:22;6.60;99.90
3156;DHT22;1588;50.892;7.082;2023-12-20T08:49:25;6.70;99.90
3156;DHT22;1588;50.892;7.082;2023-12-20T08:54:27;6.70;99.90
3156;DHT22;1588;50.892;7.082;2023-12-20T08:59:31;6.70;99.90
3156;DHT22;1588;50.892;7.082;2023-12-20T09:04:33;6.80;99.90
3156;DHT22;1588;50.892;7.082;2023-12-20T09:09:35;6.80;99.90
3156;DHT22;1588;50.892;7.082;2023-12-20T09:14:39;6.80;99.90
3156;DHT22;1588;50.892;7.082;2023-12-20T09:19:41;6.80;99.90
3156;DHT22;1588;50.892;7.082;2023-12-20T09:24:44;6.80;99.90
3156;DHT22;1588;50.892;7.082;2023-12-20T09:29:48;6.80;99.90
3156;DHT22;1588;50.892;7.082;2023-12-20T09:34:50;6.80;99.90
3156;DHT22;1588;50.892;7.082;2023-12-20T09:39:53;6.80;99.90
3156;DHT22;1588;50.892;7.082;2023-12-20T09:44:59;6.90;99.90
3156;DHT22;1588;50.892;7.082;2023-12-20T09:50:07;6.90;99.90
3156;DHT22;1588;50.892;7.082;2023-12-20T09:55:10;6.90;99.90
3156;DHT22;1588;50.892;7.082;2023-12-20T10:00:16;6.90;99.90
3156;DHT22;1588;50.892;7.082;2023-12-20T10:05:26;7.00;99.90
3156;DHT22;1588;50.892;7.082;2023-12-20T10:10:29;7.00;99.90
3156;DHT22;1588;50.892;7.082;2023-12-20T10:15:34;7.10;99.90
3156;DHT22;1588;50.892;7.082;2023-12-20T10:20:40;7.10;99.90
3156;DHT22;1588;50.892;7.082;2023-12-20T10:25:43;7.10;99.90
3156;DHT22;1588;50.892;7.082;2023-12-20T10:30:58;7.10;99.90
3156;DHT22;1588;50.892;7.082;2023-12-20T10:36:01;7.10;99.90
3156;DHT22;1588;50.892;7.082;2023-12-20T10:41:05;7.20;99.90
3156;DHT22;1588;50.892;7.082;2023-12-20T10:46:10;7.20;99.90
3156;DHT22;1588;50.892;7.082;2023-12-20T10:51:13;7.20;99.90
3156;DHT22;1588;50.892;7.082;2023-12-20T10:56:17;7.30;99.90
3156;DHT22;1588;50.892;7.082;2023-12-20T11:01:21;7.20;99.90
3156;DHT22;1588;50.892;7.082;2023-12-20T11:06:32;7.30;99.90
3156;DHT22;1588;50.892;7.082;2023-12-20T11:11:56;7.20;99.90
3156;DHT22;1588;50.892;7.082;2023-12-20T11:17:09;7.30;99.90
3156;DHT22;1588;50.892;7.082;2023-12-20T11:22:14;7.30;99.90
3156;DHT22;1588;50.892;7.082;2023-12-20T11:27:18;7.40;99.90
3156;DHT22;1588;50.892;7.082;2023-12-20T11:32:33;7.40;99.90
3156;DHT22;1588;50.892;7.082;2023-12-20T11:37:47;7.40;99.90
3156;DHT22;1588;50.892;7.082;2023-12-20T11:42:56;7.40;99.90
3156;DHT22;1588;50.892;7.082;2023-12-20T11:48:01;7.50;99.90
3156;DHT22;1588;50.892;7.082;2023-12-20T11:53:04;7.50;99.90
3156;DHT22;1588;50.892;7.082;2023-12-20T11:58:06;7.50;99.90
3156;DHT22;1588;50.892;7.082;2023-12-20T12:03:14;7.60;99.90
3156;DHT22;1588;50.892;7.082;2023-12-20T12:08:17;7.60;99.90
3156;DHT22;1588;50.892;7.082;2023-12-20T12:13:20;7.60;99.90
3156;DHT22;1588;50.892;7.082;2023-12-20T12:18:24;7.50;99.90
3156;DHT22;1588;50.892;7.082;2023-12-20T12:23:26;7.50;99.90
3156;DHT22;1588;50.892;7.082;2023-12-20T12:28:31;7.50;99.90
3156;DHT22;1588;50.892;7.082;2023-12-20T12:33:35;7.50;99.90
3156;DHT22;1588;50.892;7.082;2023-12-20T12:38:37;7.50;99.90
3156;DHT22;1588;50.892;7.082;2023-12-20T12:43:39;7.50;99.90
3156;DHT22;1588;50.892;7.082;2023-12-20T12:48:43;7.50;99.90
3156;DHT22;1588;50.892;7.082;2023-12-20T12:53:46;7.50;99.90
3156;DHT22;1588;50.892;7.082;2023-12-20T12:58:49;7.50;99.90
3156;DHT22;1588;50.892;7.082;2023-12-20T13:03:52;7.50;99.90
3156;DHT22;1588;50.892;7.082;2023-12-20T13:08:55;7.50;99.90
3156;DHT22;1588;50.892;7.082;2023-12-20T13:13:57;7.60;99.90
3156;DHT22;1588;50.892;7.082;2023-12-20T13:19:01;7.60;99.90
3156;DHT22;1588;50.892;7.082;2023-12-20T13:24:04;7.50;99.90
3156;DHT22;1588;50.892;7.082;2023-12-20T13:29:07;7.40;99.90
3156;DHT22;1588;50.892;7.082;2023-12-20T13:34:10;7.30;99.90
3156;DHT22;1588;50.892;7.082;2023-12-20T13:39:14;7.40;99.90
3156;DHT22;1588;50.892;7.082;2023-12-20T13:44:16;7.40;99.90
3156;DHT22;1588;50.892;7.082;2023-12-20T13:49:19;7.40;99.90
3156;DHT22;1588;50.892;7.082;2023-12-20T13:54:22;7.40;99.90
3156;DHT22;1588;50.892;7.082;2023-12-20T13:59:24;7.40;99.90
3156;DHT22;1588;50.892;7.082;2023-12-20T14:04:28;7.40;99.90
3156;DHT22;1588;50.892;7.082;2023-12-20T14:09:30;7.40;99.90
3156;DHT22;1588;50.892;7.082;2023-12-20T14:14:33;7.40;99.90
3156;DHT22;1588;50.892;7.082;2023-12-20T14:19:36;7.40;99.90
3156;DHT22;1588;50.892;7.082;2023-12-20T14:24:40;7.40;99.90
3156;DHT22;1588;50.892;7.082;2023-12-20T14:29:42;7.40;99.90
3156;DHT22;1588;50.892;7.082;2023-12-20T14:34:46;7.40;99.90
3156;DHT22;1588;50.892;7.082;2023-12-20T14:39:48;7.40;99.90
3156;DHT22;1588;50.892;7.082;2023-12-20T14:44:51;7.50;99.90
3156;DHT22;1588;50.892;7.082;2023-12-20T14:49:56;7.50;99.90
3156;DHT22;1588;50.892;7.082;2023-12-20T14:54:59;7.60;99.90
3156;DHT22;1588;50.892;7.082;2023-12-20T15:00:01;7.60;99.90
3156;DHT22;1588;50.892;7.082;2023-12-20T15:05:05;7.60;99.90
3156;DHT22;1588;50.892;7.082;2023-12-20T15:10:08;7.70;99.90
3156;DHT22;1588;50.892;7.082;2023-12-20T15:15:11;7.70;99.90
3156;DHT22;1588;50.892;7.082;2023-12-20T15:20:15;7.70;99.90
3156;DHT22;1588;50.892;7.082;2023-12-20T15:25:18;7.70;99.90
3156;DHT22;1588;50.892;7.082;2023-12-20T15:30:22;7.70;99.90
3156;DHT22;1588;50.892;7.082;2023-12-20T15:35:27;7.70;99.90
3156;DHT22;1588;50.892;7.082;2023-12-20T15:40:39;7.80;99.90
3156;DHT22;1588;50.892;7.082;2023-12-20T15:45:41;7.70;99.90
3156;DHT22;1588;50.892;7.082;2023-12-20T15:50:55;7.70;99.90
3156;DHT22;1588;50.892;7.082;2023-12-20T15:55:58;7.70;99.90
3156;DHT22;1588;50.892;7.082;2023-12-20T16:01:45;7.70;99.90
3156;DHT22;1588;50.892;7.082;2023-12-20T16:19:49;7.70;99.90
3156;DHT22;1588;50.892;7.082;2023-12-20T16:24:52;7.70;99.90
3156;DHT22;1588;50.892;7.082;2023-12-20T16:29:54;7.80;99.90
3156;DHT22;1588;50.892;7.082;2023-12-20T16:35:00;7.80;99.90
3156;DHT22;1588;50.892;7.082;2023-12-20T16:40:07;7.80;99.90
3156;DHT22;1588;50.892;7.082;2023-12-20T16:45:12;7.80;99.90
3156;DHT22;1588;50.892;7.082;2023-12-20T16:50:16;7.80;99.90
3156;DHT22;1588;50.892;7.082;2023-12-20T16:55:19;7.80;99.90
3156;DHT22;1588;50.892;7.082;2023-12-20T17:00:22;7.80;99.90
3156;DHT22;1588;50.892;7.082;2023-12-20T17:05:29;7.80;99.90
3156;DHT22;1588;50.892;7.082;2023-12-20T17:10:31;7.80;99.90
3156;DHT22;1588;50.892;7.082;2023-12-20T17:15:36;7.80;99.90
3156;DHT22;1588;50.892;7.082;2023-12-20T17:20:40;7.80;99.90
3156;DHT22;1588;50.892;7.082;2023-12-20T17:25:42;7.80;99.90
3156;DHT22;1588;50.892;7.082;2023-12-20T17:30:47;7.80;99.90
3156;DHT22;1588;50.892;7.082;2023-12-20T17:35:51;7.80;99.90
3156;DHT22;1588;50.892;7.082;2023-12-20T17:40:56;7.90;99.90
3156;DHT22;1588;50.892;7.082;2023-12-20T17:46:04;7.90;99.90
3156;DHT22;1588;50.892;7.082;2023-12-20T17:51:13;8.00;99.90
3156;DHT22;1588;50.892;7.082;2023-12-20T17:56:15;7.90;99.90
3156;DHT22;1588;50.892;7.082;2023-12-20T18:01:19;8.00;99.90
3156;DHT22;1588;50.892;7.082;2023-12-20T18:06:37;8.00;99.90
3156;DHT22;1588;50.892;7.082;2023-12-20T18:11:47;8.00;99.90
3156;DHT22;1588;50.892;7.082;2023-12-20T18:16:49;8.10;99.90
3156;DHT22;1588;50.892;7.082;2023-12-20T18:21:56;8.10;99.90
3156;DHT22;1588;50.892;7.082;2023-12-20T18:27:19;8.10;99.90
3156;DHT22;1588;50.892;7.082;2023-12-20T18:32:32;8.20;99.90
3156;DHT22;1588;50.892;7.082;2023-12-20T18:37:47;8.20;99.90
3156;DHT22;1588;50.892;7.082;2023-12-20T18:42:57;8.20;99.90
3156;DHT22;1588;50.892;7.082;2023-12-20T18:48:05;8.30;99.90
3156;DHT22;1588;50.892;7.082;2023-12-20T18:53:09;8.30;99.90
3156;DHT22;1588;50.892;7.082;2023-12-20T18:58:11;8.30;99.90
3156;DHT22;1588;50.892;7.082;2023-12-20T19:03:17;8.40;99.90
3156;DHT22;1588;50.892;7.082;2023-12-20T19:08:21;8.40;99.90
3156;DHT22;1588;50.892;7.082;2023-12-20T19:13:23;8.40;99.90
3156;DHT22;1588;50.892;7.082;2023-12-20T19:18:31;8.50;99.90
3156;DHT22;1588;50.892;7.082;2023-12-20T19:23:35;8.50;99.90
3156;DHT22;1588;50.892;7.082;2023-12-20T19:28:43;8.60;99.90
3156;DHT22;1588;50.892;7.082;2023-12-20T19:33:52;8.70;99.90
3156;DHT22;1588;50.892;7.082;2023-12-20T19:38:58;8.60;99.90
3156;DHT22;1588;50.892;7.082;2023-12-20T19:44:03;8.60;99.90
3156;DHT22;1588;50.892;7.082;2023-12-20T19:49:07;8.60;99.90
3156;DHT22;1588;50.892;7.082;2023-12-20T19:54:11;8.70;99.90
3156;DHT22;1588;50.892;7.082;2023-12-20T19:59:16;8.70;99.90
3156;DHT22;1588;50.892;7.082;2023-12-20T20:04:19;8.70;99.90
3156;DHT22;1588;50.892;7.082;2023-12-20T20:09:23;8.80;99.90
3156;DHT22;1588;50.892;7.082;2023-12-20T20:14:25;8.80;99.90
3156;DHT22;1588;50.892;7.082;2023-12-20T20:19:30;8.80;99.90
3156;DHT22;1588;50.892;7.082;2023-12-20T20:24:34;8.80;99.90
3156;DHT22;1588;50.892;7.082;2023-12-20T20:29:36;8.80;99.90
3156;DHT22;1588;50.892;7.082;2023-12-20T20:34:46;8.70;99.90
3156;DHT22;1588;50.892;7.082;2023-12-20T20:39:49;8.70;99.90
3156;DHT22;1588;50.892;7.082;2023-12-20T20:44:52;8.70;99.90
3156;DHT22;1588;50.892;7.082;2023-12-20T20:49:54;8.70;99.90
3156;DHT22;1588;50.892;7.082;2023-12-20T20:54:57;8.80;99.90
3156;DHT22;1588;50.892;7.082;2023-12-20T21:00:06;8.70;99.90
3156;DHT22;1588;50.892;7.082;2023-12-20T21:05:08;8.80;99.90
3156;DHT22;1588;50.892;7.082;2023-12-20T21:10:12;8.80;99.90
3156;DHT22;1588;50.892;7.082;2023-12-20T21:15:14;8.70;99.90
3156;DHT22;1588;50.892;7.082;2023-12-20T21:20:20;8.70;99.90
3156;DHT22;1588;50.892;7.082;2023-12-20T21:25:24;8.70;99.90
3156;DHT22;1588;50.892;7.082;2023-12-20T21:30:26;8.70;99.90
3156;DHT22;1588;50.892;7.082;2023-12-20T21:35:34;8.70;99.90
3156;DHT22;1588;50.892;7.082;2023-12-20T21:40:37;8.80;99.90
3156;DHT22;1588;50.892;7.082;2023-12-20T21:45:40;8.80;99.90
3156;DHT22;1588;50.892;7.082;2023-12-20T21:50:46;8.90;99.90
3156;DHT22;1588;50.892;7.082;2023-12-20T21:55:53;8.90;99.90
3156;DHT22;1588;50.892;7.082;2023-12-20T22:00:55;8.90;99.90
3156;DHT22;1588;50.892;7.082;2023-12-20T22:06:07;8.90;99.90
3156;DHT22;1588;50.892;7.082;2023-12-20T22:17:17;8.70;99.90
3156;DHT22;1588;50.892;7.082;2023-12-20T22:22:30;8.60;99.90
3156;DHT22;1588;50.892;7.082;2023-12-20T22:27:53;8.50;99.90
3156;DHT22;1588;50.892;7.082;2023-12-20T22:33:09;8.50;99.90
3156;DHT22;1588;50.892;7.082;2023-12-20T22:38:25;8.50;99.90
3156;DHT22;1588;50.892;7.082;2023-12-20T22:43:36;8.40;99.90
3156;DHT22;1588;50.892;7.082;2023-12-20T22:48:43;8.40;99.90
3156;DHT22;1588;50.892;7.082;2023-12-20T22:54:20;8.30;99.90
3156;DHT22;1588;50.892;7.082;2023-12-20T22:59:44;8.30;99.90
3156;DHT22;1588;50.892;7.082;2023-12-20T23:04:54;8.30;99.90
3156;DHT22;1588;50.892;7.082;2023-12-20T23:09:58;8.30;99.90
3156;DHT22;1588;50.892;7.082;2023-12-20T23:15:11;8.30;99.90
3156;DHT22;1588;50.892;7.082;2023-12-20T23:20:14;8.30;99.90
3156;DHT22;1588;50.892;7.082;2023-12-20T23:25:16;8.40;99.90
3156;DHT22;1588;50.892;7.082;2023-12-20T23:30:20;8.30;99.90
3156;DHT22;1588;50.892;7.082;2023-12-20T23:35:22;8.40;99.90
3156;DHT22;1588;50.892;7.082;2023-12-20T23:40:25;8.40;99.90
3156;DHT22;1588;50.892;7.082;2023-12-20T23:45:28;8.40;99.90
3156;DHT22;1588;50.892;7.082;2023-12-20T23:50:30;8.40;99.90
3156;DHT22;1588;50.892;7.082;2023-12-20T23:55:47;8.40;99.90
